createdAt,value
2023-01-30T00:00:12.892Z,29.68
2023-01-30T00:00:42.957Z,29.66
2023-01-30T00:01:13.043Z,29.64
2023-01-30T00:01:43.213Z,29.69
2023-01-30T00:02:13.211Z,29.68
2023-01-30T00:02:43.163Z,29.66
2023-01-30T00:03:13.239Z,29.68
2023-01-30T00:03:43.337Z,29.60
2023-01-30T00:04:16.073Z,29.69
2023-01-30T00:04:43.556Z,29.72
2023-01-30T00:05:13.532Z,29.68
2023-01-30T00:05:43.588Z,29.60
2023-01-30T00:06:13.678Z,29.68
2023-01-30T00:06:43.770Z,29.66
2023-01-30T00:07:13.846Z,29.65
2023-01-30T00:07:43.920Z,29.64
2023-01-30T00:08:14.003Z,29.65
2023-01-30T00:08:44.086Z,29.66
2023-01-30T00:09:14.167Z,29.66
2023-01-30T00:09:44.251Z,29.68
2023-01-30T00:10:14.349Z,29.68
2023-01-30T00:10:44.425Z,29.62
2023-01-30T00:11:14.499Z,29.68
2023-01-30T00:11:44.591Z,29.65
2023-01-30T00:12:14.693Z,29.68
2023-01-30T00:12:44.782Z,29.68
2023-01-30T00:13:14.864Z,29.66
2023-01-30T00:13:44.942Z,29.66
2023-01-30T00:14:15.035Z,29.66
2023-01-30T00:14:45.113Z,29.68
2023-01-30T00:15:15.201Z,29.69
2023-01-30T00:15:45.280Z,29.71
2023-01-30T00:16:15.421Z,29.70
2023-01-30T00:16:45.426Z,29.74
2023-01-30T00:17:15.395Z,29.74
2023-01-30T00:17:45.498Z,29.68
2023-01-30T00:18:15.557Z,29.68
2023-01-30T00:18:45.651Z,29.71
2023-01-30T00:19:15.731Z,29.72
2023-01-30T00:19:45.817Z,29.74
2023-01-30T00:20:16.035Z,29.74
2023-01-30T00:20:46.011Z,29.72
2023-01-30T00:21:16.117Z,29.75
2023-01-30T00:21:46.185Z,29.75
2023-01-30T00:22:16.280Z,29.74
2023-01-30T00:22:59.191Z,29.74
2023-01-30T00:23:16.420Z,29.71
2023-01-30T00:23:46.508Z,29.70
2023-01-30T00:24:16.654Z,29.66
2023-01-30T00:24:46.796Z,29.66
2023-01-30T00:25:16.837Z,29.77
2023-01-30T00:25:46.939Z,29.73
2023-01-30T00:26:16.801Z,29.75
2023-01-30T00:26:46.830Z,29.75
2023-01-30T00:27:16.798Z,29.74
2023-01-30T00:27:46.890Z,29.75
2023-01-30T00:28:16.966Z,29.80
2023-01-30T00:28:47.046Z,29.78
2023-01-30T00:29:17.097Z,29.74
2023-01-30T00:29:57.770Z,29.72
2023-01-30T00:30:17.520Z,29.71
2023-01-30T00:30:47.248Z,29.81
2023-01-30T00:31:17.363Z,29.74
2023-01-30T00:31:47.484Z,29.75
2023-01-30T00:32:17.429Z,29.69
2023-01-30T00:32:47.507Z,29.72
2023-01-30T00:33:17.592Z,29.72
2023-01-30T00:33:47.679Z,29.78
2023-01-30T00:34:17.746Z,29.77
2023-01-30T00:34:47.835Z,29.69
2023-01-30T00:35:17.919Z,29.69
2023-01-30T00:35:48.002Z,29.71
2023-01-30T00:36:18.090Z,29.69
2023-01-30T00:36:58.820Z,29.74
2023-01-30T00:37:18.228Z,29.71
2023-01-30T00:37:48.312Z,29.67
2023-01-30T00:38:18.396Z,29.68
2023-01-30T00:38:48.479Z,29.66
2023-01-30T00:39:18.560Z,29.71
2023-01-30T00:39:48.647Z,29.68
2023-01-30T00:40:19.086Z,29.71
2023-01-30T00:40:48.838Z,29.72
2023-01-30T00:41:18.908Z,29.78
2023-01-30T00:41:48.932Z,29.74
2023-01-30T00:42:18.972Z,29.78
2023-01-30T00:42:49.001Z,29.80
2023-01-30T00:43:19.056Z,29.77
2023-01-30T00:43:49.088Z,29.72
2023-01-30T00:44:19.113Z,29.74
2023-01-30T00:44:49.167Z,29.71
2023-01-30T00:45:19.625Z,29.78
2023-01-30T00:45:49.335Z,29.78
2023-01-30T00:46:19.421Z,29.70
2023-01-30T00:46:49.426Z,29.70
2023-01-30T00:47:19.476Z,29.68
2023-01-30T00:47:49.500Z,29.75
2023-01-30T00:48:19.528Z,29.72
2023-01-30T00:48:49.580Z,29.72
2023-01-30T00:49:19.638Z,29.72
2023-01-30T00:49:49.663Z,29.75
2023-01-30T00:50:19.684Z,29.75
2023-01-30T00:50:49.734Z,29.71
2023-01-30T00:51:19.780Z,29.71
2023-01-30T00:51:49.869Z,29.70
2023-01-30T00:52:19.951Z,29.71
2023-01-30T00:52:50.028Z,29.71
2023-01-30T00:53:20.127Z,29.67
2023-01-30T00:53:50.217Z,29.73
2023-01-30T00:54:20.301Z,29.76
2023-01-30T00:54:50.393Z,29.71
2023-01-30T00:55:20.481Z,29.72
2023-01-30T00:55:50.580Z,29.68
2023-01-30T00:56:20.656Z,29.70
2023-01-30T00:56:50.732Z,29.65
2023-01-30T00:57:20.815Z,29.71
2023-01-30T00:57:50.899Z,29.71
2023-01-30T00:58:20.996Z,29.70
2023-01-30T00:58:51.063Z,29.74
2023-01-30T00:59:21.137Z,29.68
2023-01-30T00:59:51.221Z,29.67
2023-01-30T01:00:21.300Z,29.70
2023-01-30T01:00:51.403Z,29.71
2023-01-30T01:01:21.464Z,29.69
2023-01-30T01:01:51.582Z,29.71
2023-01-30T01:02:21.678Z,29.68
2023-01-30T01:02:51.781Z,29.74
2023-01-30T01:03:21.889Z,29.74
2023-01-30T01:03:51.909Z,29.68
2023-01-30T01:04:21.983Z,29.74
2023-01-30T01:04:52.086Z,29.62
2023-01-30T01:05:22.173Z,29.73
2023-01-30T01:05:52.249Z,29.70
2023-01-30T01:06:22.335Z,29.67
2023-01-30T01:06:52.410Z,29.69
2023-01-30T01:07:22.483Z,29.70
2023-01-30T01:07:52.577Z,29.72
2023-01-30T01:08:22.770Z,29.69
2023-01-30T01:08:52.740Z,29.74
2023-01-30T01:09:22.808Z,29.75
2023-01-30T01:09:52.897Z,29.72
2023-01-30T01:10:22.994Z,29.73
2023-01-30T01:10:53.064Z,29.68
2023-01-30T01:11:23.163Z,29.71
2023-01-30T01:11:53.222Z,29.70
2023-01-30T01:12:23.292Z,29.76
2023-01-30T01:12:53.388Z,29.76
2023-01-30T01:13:23.469Z,29.72
2023-01-30T01:13:53.545Z,29.68
2023-01-30T01:14:23.622Z,29.75
2023-01-30T01:14:53.779Z,29.77
2023-01-30T01:15:23.810Z,29.73
2023-01-30T01:15:53.889Z,29.74
2023-01-30T01:16:24.040Z,29.80
2023-01-30T01:16:54.019Z,29.78
2023-01-30T01:17:24.115Z,29.72
2023-01-30T01:17:54.208Z,29.75
2023-01-30T01:18:24.288Z,29.77
2023-01-30T01:18:54.362Z,29.77
2023-01-30T01:19:24.450Z,29.77
2023-01-30T01:19:54.530Z,29.78
2023-01-30T01:20:24.618Z,29.83
2023-01-30T01:20:54.711Z,29.81
2023-01-30T01:21:24.727Z,29.74
2023-01-30T01:21:54.811Z,29.80
2023-01-30T01:22:24.892Z,29.81
2023-01-30T01:22:54.975Z,29.80
2023-01-30T01:23:25.060Z,29.84
2023-01-30T01:23:55.161Z,29.84
2023-01-30T01:24:25.219Z,29.84
2023-01-30T01:24:55.312Z,29.84
2023-01-30T01:25:25.393Z,29.86
2023-01-30T01:25:55.483Z,29.91
2023-01-30T01:26:25.602Z,29.86
2023-01-30T01:26:55.567Z,29.81
2023-01-30T01:27:25.653Z,29.85
2023-01-30T01:27:55.736Z,29.87
2023-01-30T01:28:25.852Z,29.86
2023-01-30T01:28:55.897Z,29.80
2023-01-30T01:29:25.975Z,29.84
2023-01-30T01:29:56.058Z,29.85
2023-01-30T01:30:26.159Z,29.87
2023-01-30T01:30:56.269Z,29.86
2023-01-30T01:31:26.569Z,29.83
2023-01-30T01:31:56.425Z,29.83
2023-01-30T01:32:26.456Z,29.83
2023-01-30T01:32:56.533Z,29.89
2023-01-30T01:33:26.620Z,29.83
2023-01-30T01:33:56.706Z,29.83
2023-01-30T01:34:26.775Z,29.83
2023-01-30T01:34:56.866Z,29.81
2023-01-30T01:35:26.952Z,29.90
2023-01-30T01:35:57.038Z,29.86
2023-01-30T01:36:53.087Z,29.83
2023-01-30T01:36:57.175Z,29.81
2023-01-30T01:37:27.277Z,29.86
2023-01-30T01:37:57.339Z,29.85
2023-01-30T01:38:27.427Z,29.85
2023-01-30T01:38:57.505Z,29.85
2023-01-30T01:39:27.579Z,29.80
2023-01-30T01:39:57.671Z,29.85
2023-01-30T01:40:27.750Z,29.81
2023-01-30T01:40:57.849Z,29.83
2023-01-30T01:41:27.884Z,29.85
2023-01-30T01:41:57.963Z,29.90
2023-01-30T01:42:27.997Z,29.88
2023-01-30T01:42:58.033Z,29.81
2023-01-30T01:43:28.060Z,29.87
2023-01-30T01:43:58.114Z,29.86
2023-01-30T01:44:28.136Z,29.83
2023-01-30T01:44:58.163Z,29.85
2023-01-30T01:45:28.240Z,29.86
2023-01-30T01:45:58.279Z,29.89
2023-01-30T01:46:28.315Z,29.85
2023-01-30T01:46:58.344Z,29.86
2023-01-30T01:47:28.372Z,29.83
2023-01-30T01:47:58.431Z,29.85
2023-01-30T01:48:28.458Z,29.83
2023-01-30T01:48:58.490Z,29.83
2023-01-30T01:49:28.536Z,29.82
2023-01-30T01:49:58.567Z,29.86
2023-01-30T01:50:28.615Z,29.80
2023-01-30T01:50:58.670Z,29.83
2023-01-30T01:51:28.733Z,29.86
2023-01-30T01:51:58.813Z,29.85
2023-01-30T01:52:28.887Z,29.80
2023-01-30T01:52:58.962Z,29.75
2023-01-30T01:53:29.052Z,29.80
2023-01-30T01:53:59.145Z,29.79
2023-01-30T01:54:29.228Z,29.82
2023-01-30T01:54:59.315Z,29.79
2023-01-30T01:55:29.387Z,29.83
2023-01-30T01:55:59.478Z,29.80
2023-01-30T01:56:29.566Z,29.86
2023-01-30T01:56:59.641Z,29.81
2023-01-30T01:57:29.717Z,29.85
2023-01-30T01:57:59.808Z,29.80
2023-01-30T01:58:29.886Z,29.83
2023-01-30T01:58:59.975Z,29.85
2023-01-30T01:59:30.065Z,29.82
2023-01-30T02:00:00.147Z,29.86
2023-01-30T02:00:30.231Z,29.83
2023-01-30T02:01:00.346Z,29.83
2023-01-30T02:01:30.384Z,29.82
2023-01-30T02:02:00.393Z,29.86
2023-01-30T02:02:30.368Z,29.83
2023-01-30T02:03:00.433Z,29.86
2023-01-30T02:03:30.503Z,29.88
2023-01-30T02:04:00.593Z,29.85
2023-01-30T02:04:30.664Z,29.86
2023-01-30T02:05:00.756Z,29.86
2023-01-30T02:05:30.829Z,29.85
2023-01-30T02:06:00.945Z,29.93
2023-01-30T02:06:30.996Z,29.89
2023-01-30T02:07:01.016Z,29.86
2023-01-30T02:07:31.094Z,29.83
2023-01-30T02:08:01.181Z,29.88
2023-01-30T02:08:31.254Z,29.85
2023-01-30T02:09:01.344Z,29.82
2023-01-30T02:09:31.422Z,29.81
2023-01-30T02:10:01.503Z,29.85
2023-01-30T02:10:31.591Z,29.82
2023-01-30T02:11:01.672Z,29.86
2023-01-30T02:11:31.755Z,29.82
2023-01-30T02:12:01.844Z,29.76
2023-01-30T02:12:31.919Z,29.85
2023-01-30T02:13:01.995Z,29.82
2023-01-30T02:13:32.082Z,29.86
2023-01-30T02:14:02.156Z,29.92
2023-01-30T02:14:32.243Z,29.85
2023-01-30T02:15:02.326Z,29.85
2023-01-30T02:15:32.400Z,29.86
2023-01-30T02:16:02.498Z,29.85
2023-01-30T02:16:32.579Z,29.85
2023-01-30T02:17:02.653Z,29.85
2023-01-30T02:17:32.774Z,29.85
2023-01-30T02:18:02.836Z,29.85
2023-01-30T02:18:32.922Z,29.89
2023-01-30T02:19:03.020Z,29.88
2023-01-30T02:19:33.007Z,29.90
2023-01-30T02:20:03.084Z,29.89
2023-01-30T02:20:33.163Z,29.89
2023-01-30T02:21:03.249Z,29.88
2023-01-30T02:21:33.337Z,29.82
2023-01-30T02:22:03.436Z,29.86
2023-01-30T02:22:33.493Z,29.86
2023-01-30T02:23:03.572Z,29.85
2023-01-30T02:23:33.670Z,29.89
2023-01-30T02:24:03.741Z,29.91
2023-01-30T02:24:33.835Z,29.92
2023-01-30T02:25:03.915Z,29.90
2023-01-30T02:25:34.007Z,29.92
2023-01-30T02:26:04.092Z,29.92
2023-01-30T02:26:34.175Z,29.93
2023-01-30T02:27:04.253Z,29.92
2023-01-30T02:27:34.342Z,29.92
2023-01-30T02:28:04.430Z,29.93
2023-01-30T02:28:34.533Z,29.88
2023-01-30T02:29:04.598Z,29.91
2023-01-30T02:29:34.685Z,29.89
2023-01-30T02:30:04.764Z,29.90
2023-01-30T02:30:34.928Z,29.89
2023-01-30T02:31:05.004Z,29.88
2023-01-30T02:31:35.010Z,29.89
2023-01-30T02:32:04.964Z,29.83
2023-01-30T02:32:35.053Z,29.89
2023-01-30T02:33:05.126Z,29.89
2023-01-30T02:33:35.209Z,29.92
2023-01-30T02:34:05.295Z,29.92
2023-01-30T02:34:35.375Z,29.92
2023-01-30T02:35:05.455Z,29.91
2023-01-30T02:35:35.459Z,29.91
2023-01-30T02:36:05.547Z,29.92
2023-01-30T02:36:35.624Z,29.86
2023-01-30T02:37:05.702Z,29.88
2023-01-30T02:37:35.780Z,29.98
2023-01-30T02:38:05.854Z,29.88
2023-01-30T02:38:35.945Z,29.88
2023-01-30T02:39:06.036Z,29.92
2023-01-30T02:39:36.119Z,29.91
2023-01-30T02:40:06.191Z,29.95
2023-01-30T02:40:36.277Z,29.88
2023-01-30T02:41:06.355Z,29.86
2023-01-30T02:41:36.417Z,29.88
2023-01-30T02:42:06.444Z,29.93
2023-01-30T02:42:36.472Z,29.93
2023-01-30T02:43:06.522Z,29.92
2023-01-30T02:43:36.552Z,29.89
2023-01-30T02:44:06.590Z,29.86
2023-01-30T02:44:36.632Z,29.89
2023-01-30T02:45:06.660Z,29.89
2023-01-30T02:46:15.882Z,29.92
2023-01-30T02:46:45.888Z,29.97
2023-01-30T02:47:15.962Z,29.93
2023-01-30T02:47:45.987Z,29.90
2023-01-30T02:48:16.021Z,29.97
2023-01-30T02:48:46.114Z,29.97
2023-01-30T02:49:16.130Z,29.95
2023-01-30T02:49:46.217Z,29.92
2023-01-30T02:50:16.269Z,29.92
2023-01-30T02:50:46.286Z,29.90
2023-01-30T02:51:16.343Z,29.86
2023-01-30T02:51:46.376Z,29.89
2023-01-30T02:52:18.334Z,29.93
2023-01-30T02:52:46.498Z,29.97
2023-01-30T02:53:16.524Z,29.93
2023-01-30T02:53:46.575Z,29.92
2023-01-30T02:54:16.619Z,29.90
2023-01-30T02:54:46.650Z,29.92
2023-01-30T02:55:17.031Z,29.88
2023-01-30T02:55:46.723Z,29.95
2023-01-30T02:56:16.807Z,29.93
2023-01-30T02:56:46.896Z,29.98
2023-01-30T02:57:16.986Z,30.04
2023-01-30T02:57:47.093Z,30.01
2023-01-30T02:58:17.150Z,29.99
2023-01-30T02:58:47.231Z,30.03
2023-01-30T02:59:17.314Z,30.03
2023-01-30T02:59:47.399Z,29.97
2023-01-30T03:00:17.483Z,29.99
2023-01-30T03:00:47.573Z,29.99
2023-01-30T03:01:17.684Z,29.98
2023-01-30T03:01:47.748Z,30.01
2023-01-30T03:02:17.851Z,29.99
2023-01-30T03:02:47.978Z,30.01
2023-01-30T03:03:17.946Z,30.01
2023-01-30T03:03:48.063Z,30.05
2023-01-30T03:04:18.127Z,30.04
2023-01-30T03:04:48.208Z,30.01
2023-01-30T03:05:18.748Z,30.00
2023-01-30T03:05:48.395Z,29.93
2023-01-30T03:06:18.486Z,29.95
2023-01-30T03:06:48.567Z,29.97
2023-01-30T03:07:18.647Z,29.98
2023-01-30T03:07:48.726Z,30.02
2023-01-30T03:08:18.818Z,29.97
2023-01-30T03:08:48.895Z,29.98
2023-01-30T03:09:18.980Z,29.98
2023-01-30T03:09:49.019Z,30.07
2023-01-30T03:10:19.127Z,30.01
2023-01-30T03:10:49.202Z,29.99
2023-01-30T03:11:19.285Z,30.00
2023-01-30T03:11:49.336Z,30.03
2023-01-30T03:12:19.420Z,30.07
2023-01-30T03:12:49.473Z,29.96
2023-01-30T03:13:19.500Z,30.01
2023-01-30T03:13:49.539Z,29.97
2023-01-30T03:14:19.618Z,29.98
2023-01-30T03:14:49.768Z,30.08
2023-01-30T03:15:19.928Z,30.02
2023-01-30T03:15:49.801Z,30.02
2023-01-30T03:16:19.879Z,30.02
2023-01-30T03:16:49.841Z,30.07
2023-01-30T03:17:19.925Z,30.05
2023-01-30T03:17:50.001Z,30.04
2023-01-30T03:18:20.087Z,30.05
2023-01-30T03:18:50.155Z,30.09
2023-01-30T03:19:20.239Z,30.07
2023-01-30T03:19:50.325Z,30.02
2023-01-30T03:20:20.411Z,30.07
2023-01-30T03:20:50.496Z,30.07
2023-01-30T03:21:20.580Z,29.99
2023-01-30T03:21:50.650Z,30.08
2023-01-30T03:22:20.747Z,30.01
2023-01-30T03:22:50.833Z,30.02
2023-01-30T03:23:20.914Z,30.08
2023-01-30T03:23:51.004Z,30.07
2023-01-30T03:24:21.073Z,30.07
2023-01-30T03:24:51.165Z,30.07
2023-01-30T03:25:21.173Z,30.07
2023-01-30T03:25:51.249Z,30.08
2023-01-30T03:26:21.446Z,30.13
2023-01-30T03:26:51.411Z,30.14
2023-01-30T03:27:21.500Z,30.08
2023-01-30T03:27:51.593Z,30.05
2023-01-30T03:28:21.678Z,30.08
2023-01-30T03:28:51.780Z,30.07
2023-01-30T03:29:21.841Z,30.10
2023-01-30T03:29:51.919Z,30.11
2023-01-30T03:30:22.000Z,30.11
2023-01-30T03:30:52.173Z,30.10
2023-01-30T03:31:22.374Z,30.08
2023-01-30T03:31:52.278Z,30.02
2023-01-30T03:32:22.280Z,30.13
2023-01-30T03:32:52.359Z,30.05
2023-01-30T03:33:22.440Z,30.04
2023-01-30T03:33:52.513Z,30.09
2023-01-30T03:34:22.541Z,30.07
2023-01-30T03:34:52.629Z,30.11
2023-01-30T03:35:22.701Z,30.03
2023-01-30T03:35:52.953Z,30.09
2023-01-30T03:36:22.792Z,30.04
2023-01-30T03:36:52.909Z,30.09
2023-01-30T03:37:22.969Z,30.08
2023-01-30T03:37:53.050Z,30.04
2023-01-30T03:38:23.133Z,30.07
2023-01-30T03:38:53.212Z,30.09
2023-01-30T03:39:23.300Z,30.13
2023-01-30T03:39:53.353Z,30.16
2023-01-30T03:40:23.427Z,30.08
2023-01-30T03:40:53.514Z,30.15
2023-01-30T03:41:23.595Z,30.16
2023-01-30T03:41:53.680Z,30.16
2023-01-30T03:42:23.764Z,30.14
2023-01-30T03:42:53.848Z,30.11
2023-01-30T03:43:23.937Z,30.13
2023-01-30T03:43:54.027Z,30.13
2023-01-30T03:44:24.134Z,30.13
2023-01-30T03:44:54.192Z,30.10
2023-01-30T03:45:24.272Z,30.13
2023-01-30T03:45:54.381Z,30.16
2023-01-30T03:46:24.470Z,30.11
2023-01-30T03:46:54.487Z,30.08
2023-01-30T03:47:24.530Z,30.14
2023-01-30T03:47:54.559Z,30.13
2023-01-30T03:48:24.669Z,30.17
2023-01-30T03:48:54.715Z,30.11
2023-01-30T03:49:24.761Z,30.13
2023-01-30T03:49:54.789Z,30.16
2023-01-30T03:50:24.835Z,30.13
2023-01-30T03:50:54.870Z,30.10
2023-01-30T03:51:24.919Z,30.09
2023-01-30T03:51:54.981Z,30.09
2023-01-30T03:52:25.010Z,30.13
2023-01-30T03:52:55.061Z,30.10
2023-01-30T03:53:25.093Z,30.14
2023-01-30T03:53:55.127Z,30.08
2023-01-30T03:54:25.159Z,30.11
2023-01-30T03:54:55.202Z,30.16
2023-01-30T03:55:25.258Z,30.17
2023-01-30T03:55:55.328Z,30.13
2023-01-30T03:56:25.525Z,30.17
2023-01-30T03:56:55.523Z,30.20
2023-01-30T03:57:25.600Z,30.25
2023-01-30T03:57:55.681Z,30.21
2023-01-30T03:58:25.772Z,30.14
2023-01-30T03:58:55.852Z,30.22
2023-01-30T03:59:25.965Z,30.20
2023-01-30T03:59:56.028Z,30.17
2023-01-30T04:00:26.165Z,30.17
2023-01-30T04:00:56.860Z,30.21
2023-01-30T04:01:26.244Z,30.14
2023-01-30T04:01:56.204Z,30.25
2023-01-30T04:02:26.390Z,30.18
2023-01-30T04:02:56.358Z,30.18
2023-01-30T04:03:26.452Z,30.23
2023-01-30T04:03:56.528Z,30.25
2023-01-30T04:04:26.608Z,30.26
2023-01-30T04:04:56.689Z,30.27
2023-01-30T04:05:26.769Z,30.23
2023-01-30T04:05:56.864Z,30.24
2023-01-30T04:06:26.982Z,30.21
2023-01-30T04:06:56.945Z,30.25
2023-01-30T04:07:27.028Z,30.21
2023-01-30T04:07:57.110Z,30.30
2023-01-30T04:08:27.196Z,30.30
2023-01-30T04:08:57.301Z,30.23
2023-01-30T04:09:27.364Z,30.21
2023-01-30T04:09:57.452Z,30.26
2023-01-30T04:10:27.529Z,30.21
2023-01-30T04:10:57.621Z,30.26
2023-01-30T04:11:27.763Z,30.28
2023-01-30T04:11:57.731Z,30.18
2023-01-30T04:12:27.811Z,30.25
2023-01-30T04:12:57.905Z,30.18
2023-01-30T04:13:27.992Z,30.20
2023-01-30T04:13:58.074Z,30.20
2023-01-30T04:14:28.165Z,30.15
2023-01-30T04:14:58.223Z,30.14
2023-01-30T04:15:28.302Z,30.18
2023-01-30T04:15:58.396Z,30.27
2023-01-30T04:16:28.611Z,30.18
2023-01-30T04:16:58.607Z,30.19
2023-01-30T04:17:28.572Z,30.20
2023-01-30T04:17:58.658Z,30.17
2023-01-30T04:18:28.745Z,30.20
2023-01-30T04:18:58.823Z,30.20
2023-01-30T04:19:28.893Z,30.13
2023-01-30T04:19:58.986Z,30.18
2023-01-30T04:20:29.081Z,30.18
2023-01-30T04:20:59.162Z,30.23
2023-01-30T04:21:29.271Z,30.18
2023-01-30T04:21:59.352Z,30.13
2023-01-30T04:22:29.435Z,30.17
2023-01-30T04:22:59.511Z,30.17
2023-01-30T04:23:29.606Z,30.17
2023-01-30T04:23:59.693Z,30.17
2023-01-30T04:24:29.772Z,30.20
2023-01-30T04:24:59.868Z,30.23
2023-01-30T04:25:29.956Z,30.20
2023-01-30T04:26:00.050Z,30.23
2023-01-30T04:26:30.241Z,30.24
2023-01-30T04:27:00.135Z,30.24
2023-01-30T04:27:30.219Z,30.24
2023-01-30T04:28:00.304Z,30.27
2023-01-30T04:28:30.384Z,30.29
2023-01-30T04:29:00.471Z,30.29
2023-01-30T04:29:30.692Z,30.29
2023-01-30T04:30:00.631Z,30.25
2023-01-30T04:30:30.778Z,30.30
2023-01-30T04:31:00.815Z,30.32
2023-01-30T04:31:30.942Z,30.38
2023-01-30T04:32:00.822Z,30.38
2023-01-30T04:32:30.908Z,30.43
2023-01-30T04:33:00.999Z,30.41
2023-01-30T04:33:31.070Z,30.41
2023-01-30T04:34:01.148Z,30.45
2023-01-30T04:34:31.234Z,30.42
2023-01-30T04:35:01.317Z,30.47
2023-01-30T04:35:31.391Z,30.46
2023-01-30T04:36:01.478Z,30.50
2023-01-30T04:36:31.578Z,30.53
2023-01-30T04:37:01.676Z,30.53
2023-01-30T04:37:31.744Z,30.56
2023-01-30T04:38:01.820Z,30.57
2023-01-30T04:38:31.898Z,30.57
2023-01-30T04:39:01.984Z,30.56
2023-01-30T04:39:32.086Z,30.62
2023-01-30T04:40:02.155Z,30.63
2023-01-30T04:40:32.246Z,30.56
2023-01-30T04:41:02.316Z,30.59
2023-01-30T04:41:32.414Z,30.54
2023-01-30T04:42:02.499Z,30.58
2023-01-30T04:42:32.576Z,30.51
2023-01-30T04:43:02.658Z,30.51
2023-01-30T04:43:32.740Z,30.56
2023-01-30T04:44:02.825Z,30.49
2023-01-30T04:44:32.927Z,30.50
2023-01-30T04:45:02.979Z,30.50
2023-01-30T04:45:33.062Z,30.47
2023-01-30T04:46:03.130Z,30.53
2023-01-30T04:46:33.189Z,30.55
2023-01-30T04:47:03.236Z,30.49
2023-01-30T04:47:33.339Z,30.44
2023-01-30T04:48:03.285Z,30.54
2023-01-30T04:48:33.323Z,30.57
2023-01-30T04:49:03.365Z,30.60
2023-01-30T04:49:33.388Z,30.62
2023-01-30T04:50:03.433Z,30.65
2023-01-30T04:50:33.489Z,30.63
2023-01-30T04:51:03.539Z,30.66
2023-01-30T04:51:33.591Z,30.64
2023-01-30T04:52:03.642Z,30.67
2023-01-30T04:52:33.672Z,30.64
2023-01-30T04:53:03.713Z,30.69
2023-01-30T04:53:33.752Z,30.69
2023-01-30T04:54:03.784Z,30.73
2023-01-30T04:54:33.866Z,30.67
2023-01-30T04:55:03.867Z,30.73
2023-01-30T04:55:33.916Z,30.78
2023-01-30T04:56:03.985Z,30.78
2023-01-30T04:56:34.073Z,30.82
2023-01-30T04:57:04.155Z,30.80
2023-01-30T04:57:34.237Z,30.82
2023-01-30T04:58:04.314Z,30.83
2023-01-30T04:58:34.418Z,30.86
2023-01-30T04:59:04.477Z,30.79
2023-01-30T04:59:34.594Z,30.88
2023-01-30T05:00:04.652Z,30.82
2023-01-30T05:00:34.787Z,30.83
2023-01-30T05:01:04.806Z,30.79
2023-01-30T05:01:34.883Z,30.78
2023-01-30T05:02:04.899Z,30.72
2023-01-30T05:02:34.853Z,30.69
2023-01-30T05:03:04.939Z,30.75
2023-01-30T05:03:35.010Z,30.69
2023-01-30T05:04:05.098Z,30.65
2023-01-30T05:04:35.093Z,30.63
2023-01-30T05:05:05.176Z,30.64
2023-01-30T05:05:35.266Z,30.56
2023-01-30T05:06:05.339Z,30.62
2023-01-30T05:06:35.430Z,30.59
2023-01-30T05:07:05.523Z,30.49
2023-01-30T05:07:35.579Z,30.52
2023-01-30T05:08:05.663Z,30.51
2023-01-30T05:08:35.757Z,30.48
2023-01-30T05:09:05.856Z,30.41
2023-01-30T05:09:35.930Z,30.43
2023-01-30T05:10:06.005Z,30.36
2023-01-30T05:10:36.097Z,30.32
2023-01-30T05:11:06.176Z,30.31
2023-01-30T05:11:36.273Z,30.32
2023-01-30T05:12:06.352Z,30.31
2023-01-30T05:12:36.426Z,30.30
2023-01-30T05:13:06.513Z,30.27
2023-01-30T05:13:36.598Z,30.30
2023-01-30T05:14:06.686Z,30.24
2023-01-30T05:14:36.736Z,30.21
2023-01-30T05:15:06.865Z,30.16
2023-01-30T05:15:36.837Z,30.25
2023-01-30T05:16:06.923Z,30.30
2023-01-30T05:16:37.003Z,30.25
2023-01-30T05:17:07.180Z,30.26
2023-01-30T05:17:37.141Z,30.23
2023-01-30T05:18:07.231Z,30.13
2023-01-30T05:18:37.315Z,30.19
2023-01-30T05:19:07.393Z,30.25
2023-01-30T05:19:37.487Z,30.32
2023-01-30T05:20:07.552Z,30.36
2023-01-30T05:20:37.656Z,30.44
2023-01-30T05:21:07.713Z,30.56
2023-01-30T05:21:37.809Z,30.59
2023-01-30T05:22:07.894Z,30.69
2023-01-30T05:22:37.972Z,30.71
2023-01-30T05:23:08.117Z,30.71
2023-01-30T05:23:38.085Z,30.79
2023-01-30T05:24:08.158Z,30.75
2023-01-30T05:24:38.244Z,30.80
2023-01-30T05:25:08.343Z,30.90
2023-01-30T05:25:38.405Z,30.96
2023-01-30T05:26:08.491Z,30.93
2023-01-30T05:26:38.615Z,30.94
2023-01-30T05:27:08.617Z,30.99
2023-01-30T05:27:38.699Z,30.99
2023-01-30T05:28:08.771Z,30.96
2023-01-30T05:28:38.859Z,31.04
2023-01-30T05:29:08.942Z,31.01
2023-01-30T05:29:39.032Z,30.98
2023-01-30T05:30:09.103Z,31.00
2023-01-30T05:30:39.222Z,31.04
2023-01-30T05:31:09.436Z,30.95
2023-01-30T05:31:39.337Z,30.95
2023-01-30T05:32:09.409Z,30.91
2023-01-30T05:32:39.480Z,30.92
2023-01-30T05:33:09.572Z,30.93
2023-01-30T05:33:39.677Z,30.95
2023-01-30T05:34:09.750Z,30.94
2023-01-30T05:34:39.834Z,30.97
2023-01-30T05:35:10.071Z,30.95
2023-01-30T05:35:39.930Z,31.02
2023-01-30T05:36:10.117Z,30.94
2023-01-30T05:36:40.073Z,30.93
2023-01-30T05:37:10.167Z,30.96
2023-01-30T05:37:40.255Z,30.91
2023-01-30T05:38:10.334Z,30.89
2023-01-30T05:38:40.428Z,30.90
2023-01-30T05:39:10.512Z,30.90
2023-01-30T05:39:40.581Z,30.92
2023-01-30T05:40:10.669Z,30.88
2023-01-30T05:40:40.747Z,30.95
2023-01-30T05:41:10.830Z,30.86
2023-01-30T05:41:40.908Z,30.89
2023-01-30T05:42:10.983Z,30.82
2023-01-30T05:42:41.074Z,30.80
2023-01-30T05:43:11.144Z,30.85
2023-01-30T05:43:41.246Z,30.82
2023-01-30T05:44:12.455Z,30.85
2023-01-30T05:44:41.426Z,30.74
2023-01-30T05:45:11.507Z,30.82
2023-01-30T05:45:41.488Z,30.85
2023-01-30T05:46:11.563Z,30.89
2023-01-30T05:46:41.653Z,30.78
2023-01-30T05:47:11.599Z,30.79
2023-01-30T05:47:41.620Z,30.84
2023-01-30T05:48:11.668Z,30.84
2023-01-30T05:48:41.698Z,30.85
2023-01-30T05:49:11.730Z,30.87
2023-01-30T05:49:41.771Z,30.90
2023-01-30T05:50:11.800Z,30.82
2023-01-30T05:50:41.829Z,30.89
2023-01-30T05:51:11.859Z,30.84
2023-01-30T05:51:41.921Z,30.85
2023-01-30T05:52:11.948Z,30.87
2023-01-30T05:52:41.976Z,30.89
2023-01-30T05:53:12.019Z,30.83
2023-01-30T05:53:42.055Z,30.85
2023-01-30T05:54:12.087Z,30.89
2023-01-30T05:54:42.143Z,30.87
2023-01-30T05:55:12.161Z,30.89
2023-01-30T05:55:42.188Z,30.86
2023-01-30T05:56:12.284Z,30.78
2023-01-30T05:56:42.394Z,30.77
2023-01-30T05:57:12.463Z,30.84
2023-01-30T05:57:42.546Z,30.78
2023-01-30T05:58:12.635Z,30.79
2023-01-30T05:58:42.714Z,30.76
2023-01-30T05:59:12.793Z,30.73
2023-01-30T05:59:42.926Z,30.79
2023-01-30T06:00:12.974Z,30.76
2023-01-30T06:00:43.051Z,30.70
2023-01-30T06:01:13.147Z,30.70
2023-01-30T06:01:43.218Z,30.75
2023-01-30T06:02:13.302Z,30.69
2023-01-30T06:02:43.461Z,30.72
2023-01-30T06:03:13.399Z,30.67
2023-01-30T06:03:43.582Z,30.72
2023-01-30T06:04:13.542Z,30.69
2023-01-30T06:04:43.628Z,30.66
2023-01-30T06:05:13.705Z,30.72
2023-01-30T06:05:43.779Z,30.67
2023-01-30T06:06:13.884Z,30.67
2023-01-30T06:06:43.946Z,30.72
2023-01-30T06:07:14.031Z,30.74
2023-01-30T06:07:44.100Z,30.69
2023-01-30T06:08:14.198Z,30.74
2023-01-30T06:08:44.294Z,30.77
2023-01-30T06:09:14.360Z,30.74
2023-01-30T06:09:44.452Z,30.72
2023-01-30T06:10:14.527Z,30.69
2023-01-30T06:10:44.593Z,30.74
2023-01-30T06:11:14.694Z,30.78
2023-01-30T06:11:44.774Z,30.78
2023-01-30T06:12:14.863Z,30.80
2023-01-30T06:12:44.941Z,30.75
2023-01-30T06:13:15.018Z,30.74
2023-01-30T06:13:45.103Z,30.74
2023-01-30T06:14:15.192Z,30.74
2023-01-30T06:14:45.292Z,30.71
2023-01-30T06:15:15.721Z,30.70
2023-01-30T06:15:45.503Z,30.71
2023-01-30T06:16:15.567Z,30.75
2023-01-30T06:16:45.649Z,30.81
2023-01-30T06:17:15.597Z,30.83
2023-01-30T06:17:45.667Z,30.81
2023-01-30T06:18:15.756Z,30.84
2023-01-30T06:18:45.856Z,30.83
2023-01-30T06:19:15.915Z,30.86
2023-01-30T06:19:45.995Z,30.87
2023-01-30T06:20:16.081Z,30.89
2023-01-30T06:20:46.151Z,30.85
2023-01-30T06:21:16.466Z,30.90
2023-01-30T06:21:46.322Z,30.86
2023-01-30T06:22:16.396Z,30.95
2023-01-30T06:22:46.475Z,30.93
2023-01-30T06:23:16.544Z,30.95
2023-01-30T06:23:46.634Z,30.92
2023-01-30T06:24:16.700Z,30.93
2023-01-30T06:24:46.783Z,30.99
2023-01-30T06:25:17.183Z,30.92
2023-01-30T06:25:46.933Z,31.01
2023-01-30T06:26:17.069Z,30.96
2023-01-30T06:26:47.107Z,30.96
2023-01-30T06:27:17.088Z,30.96
2023-01-30T06:27:47.149Z,30.90